Orion charter Township, MI

3:46 AM EST on January 30, 2015 (GMT -0500)
Stonegate | Change Station
CLOSE
Current Station
Personal Weather Station
Location: Lake Orion, MI
Elevation: 1000 ft
Nearby Weather Stations

Elev 1000 ft 42.72 °N, 83.22 °W | Updated 0 second ago

Snow
Snow
19.3 °F
Feels Like 10 °F
N
6.9
Wind Variable Wind from NE
Gusts 13.2 mph

Today
High -- | Low -- °F
--% Chance of Precip.
Yesterday
High -- | Low -- °F
Precip. -- in
7:49 AM 5:43 PM
Waxing Gibbous, 81% visible
Pressure 30.14 in
Visibility 5.0 miles
Clouds Mostly Cloudy 3300 ft
Overcast 5500 ft
Windchill 10 °F
Dew Point 14 °F
Humidity 79%
Rainfall 0.00 in
Snow Depth Not available.
UV 0 out of 12
Pollen .10 out of 12
Air Quality Not available.
Flu Activity Not available.
SPECI KPTK 300819Z AUTO 32018G26KT 5SM -SN BKN033 OVC055 M07/M11 A3014 RMK AO2 PK WND 32026/0813 P0000 T10671111

More Conditions Fewer Conditions

Pressure 30.14 in
Visibility 5.0 miles
Clouds Mostly Cloudy 3300 ft
Overcast 5500 ft
Windchill 10 °F
Dew Point 14 °F
Humidity 79%
Rainfall 0.00 in
Snow Depth Not available.
UV 0 out of 12
Pollen .10 out of 12
Air Quality Not available.
Flu Activity Not available.
SPECI KPTK 300819Z AUTO 32018G26KT 5SM -SN BKN033 OVC055 M07/M11 A3014 RMK AO2 PK WND 32026/0813 P0000 T10671111

More Conditions Fewer Conditions

10-Day Weather Forecast

Almanac

Astronomy

Jan. 30, 2015 Rise Set
Actual Time
Civil Twilight
Nautical Twilight
Astronomical Twilight
Moon
Length of Visible Light
Length of Day
Tomorrow will be .
, % of the Moon is Illuminated

Today's Extremes

State Highs State Lows

Community

WunderPhotos

Upload Photos

1,791,730 photos uploaded!

WunderBlogs® & News

Nearby

Air Quality

  Air Quality AQ Index Pollutant
Not available.

Snow Depth

Station Depth Elevation

Earthquake Activity

City Distance Mag. Time & Date
Minimum magnitude displayed is 2.5.

Coastal Water Temperatures

Place Temperature

Nearby Weather Stations